sensor_id;sensor_type;location;lat;lon;timestamp;temperature;humidity
21123;DHT22;10719;48.130;11.630;2022-11-20T00:00:54;5.60;99.90
21123;DHT22;10719;48.130;11.630;2022-11-20T00:03:19;5.60;99.90
21123;DHT22;10719;48.130;11.630;2022-11-20T00:05:45;5.60;99.90
21123;DHT22;10719;48.130;11.630;2022-11-20T00:08:14;5.60;99.90
21123;DHT22;10719;48.130;11.630;2022-11-20T00:10:40;5.70;99.90
21123;DHT22;10719;48.130;11.630;2022-11-20T00:13:06;5.60;99.90
21123;DHT22;10719;48.130;11.630;2022-11-20T00:15:33;5.60;99.90
21123;DHT22;10719;48.130;11.630;2022-11-20T00:18:02;5.60;99.90
21123;DHT22;10719;48.130;11.630;2022-11-20T00:20:27;5.60;99.90
21123;DHT22;10719;48.130;11.630;2022-11-20T00:22:53;5.60;99.90
21123;DHT22;10719;48.130;11.630;2022-11-20T00:25:18;5.60;99.90
21123;DHT22;10719;48.130;11.630;2022-11-20T00:27:44;5.70;99.90
21123;DHT22;10719;48.130;11.630;2022-11-20T00:30:10;5.70;99.90
21123;DHT22;10719;48.130;11.630;2022-11-20T00:32:35;5.70;99.90
21123;DHT22;10719;48.130;11.630;2022-11-20T00:35:01;5.60;99.90
21123;DHT22;10719;48.130;11.630;2022-11-20T00:37:27;5.70;99.90
21123;DHT22;10719;48.130;11.630;2022-11-20T00:39:52;5.70;99.90
21123;DHT22;10719;48.130;11.630;2022-11-20T00:42:18;5.70;99.90
21123;DHT22;10719;48.130;11.630;2022-11-20T00:44:44;5.70;99.90
21123;DHT22;10719;48.130;11.630;2022-11-20T00:47:17;5.60;99.90
21123;DHT22;10719;48.130;11.630;2022-11-20T00:49:52;5.60;99.90
21123;DHT22;10719;48.130;11.630;2022-11-20T00:52:24;5.60;99.90
21123;DHT22;10719;48.130;11.630;2022-11-20T00:54:53;5.60;99.90
21123;DHT22;10719;48.130;11.630;2022-11-20T00:57:18;5.60;99.90
21123;DHT22;10719;48.130;11.630;2022-11-20T00:59:44;5.60;99.90
21123;DHT22;10719;48.130;11.630;2022-11-20T01:02:12;5.60;99.90
21123;DHT22;10719;48.130;11.630;2022-11-20T01:04:38;5.60;99.90
21123;DHT22;10719;48.130;11.630;2022-11-20T01:07:04;5.60;99.90
21123;DHT22;10719;48.130;11.630;2022-11-20T01:09:29;5.50;99.90
21123;DHT22;10719;48.130;11.630;2022-11-20T01:11:55;5.60;99.90
21123;DHT22;10719;48.130;11.630;2022-11-20T01:14:21;5.60;99.90
21123;DHT22;10719;48.130;11.630;2022-11-20T01:16:49;5.60;99.90
21123;DHT22;10719;48.130;11.630;2022-11-20T01:19:20;5.60;99.90
21123;DHT22;10719;48.130;11.630;2022-11-20T01:21:49;5.60;99.90
21123;DHT22;10719;48.130;11.630;2022-11-20T01:24:16;5.60;99.90
21123;DHT22;10719;48.130;11.630;2022-11-20T01:26:44;5.60;99.90
21123;DHT22;10719;48.130;11.630;2022-11-20T01:29:16;5.60;99.90
21123;DHT22;10719;48.130;11.630;2022-11-20T01:31:43;5.60;99.90
21123;DHT22;10719;48.130;11.630;2022-11-20T01:34:11;5.70;99.90
21123;DHT22;10719;48.130;11.630;2022-11-20T01:36:38;5.60;99.90
21123;DHT22;10719;48.130;11.630;2022-11-20T01:39:16;5.70;99.90
21123;DHT22;10719;48.130;11.630;2022-11-20T01:41:43;5.60;99.90
21123;DHT22;10719;48.130;11.630;2022-11-20T01:45:00;5.60;99.90
21123;DHT22;10719;48.130;11.630;2022-11-20T01:47:43;5.70;99.90
21123;DHT22;10719;48.130;11.630;2022-11-20T01:50:27;5.60;99.90
21123;DHT22;10719;48.130;11.630;2022-11-20T01:52:58;5.60;99.90
21123;DHT22;10719;48.130;11.630;2022-11-20T01:55:31;5.60;99.90
21123;DHT22;10719;48.130;11.630;2022-11-20T01:57:59;5.60;99.90
21123;DHT22;10719;48.130;11.630;2022-11-20T02:00:25;5.60;99.90
21123;DHT22;10719;48.130;11.630;2022-11-20T02:02:58;5.60;99.90
21123;DHT22;10719;48.130;11.630;2022-11-20T02:07:59;5.60;99.90
21123;DHT22;10719;48.130;11.630;2022-11-20T02:10:26;5.60;99.90
21123;DHT22;10719;48.130;11.630;2022-11-20T02:12:52;5.60;99.90
21123;DHT22;10719;48.130;11.630;2022-11-20T02:15:36;5.60;99.90
21123;DHT22;10719;48.130;11.630;2022-11-20T02:18:02;5.60;99.90
21123;DHT22;10719;48.130;11.630;2022-11-20T02:20:28;5.50;99.90
21123;DHT22;10719;48.130;11.630;2022-11-20T02:22:58;5.50;99.90
21123;DHT22;10719;48.130;11.630;2022-11-20T02:25:25;5.50;99.90
21123;DHT22;10719;48.130;11.630;2022-11-20T02:27:51;5.50;99.90
21123;DHT22;10719;48.130;11.630;2022-11-20T02:30:17;5.50;99.90
21123;DHT22;10719;48.130;11.630;2022-11-20T02:32:43;5.60;99.90
21123;DHT22;10719;48.130;11.630;2022-11-20T02:37:57;5.50;99.90
21123;DHT22;10719;48.130;11.630;2022-11-20T02:40:24;5.50;99.90
21123;DHT22;10719;48.130;11.630;2022-11-20T02:42:53;5.40;99.90
21123;DHT22;10719;48.130;11.630;2022-11-20T02:45:19;5.50;99.90
21123;DHT22;10719;48.130;11.630;2022-11-20T02:47:45;5.50;99.90
21123;DHT22;10719;48.130;11.630;2022-11-20T02:50:11;5.50;99.90
21123;DHT22;10719;48.130;11.630;2022-11-20T02:52:36;5.40;99.90
21123;DHT22;10719;48.130;11.630;2022-11-20T02:55:03;5.50;99.90
21123;DHT22;10719;48.130;11.630;2022-11-20T02:57:29;5.50;99.90
21123;DHT22;10719;48.130;11.630;2022-11-20T02:59:55;5.40;99.90
21123;DHT22;10719;48.130;11.630;2022-11-20T03:02:21;5.50;99.90
21123;DHT22;10719;48.130;11.630;2022-11-20T03:04:46;5.50;99.90
21123;DHT22;10719;48.130;11.630;2022-11-20T03:07:12;5.50;99.90
21123;DHT22;10719;48.130;11.630;2022-11-20T03:09:38;5.50;99.90
21123;DHT22;10719;48.130;11.630;2022-11-20T03:12:03;5.50;99.90
21123;DHT22;10719;48.130;11.630;2022-11-20T03:14:29;5.50;99.90
21123;DHT22;10719;48.130;11.630;2022-11-20T03:16:55;5.50;99.90
21123;DHT22;10719;48.130;11.630;2022-11-20T03:19:21;5.50;99.90
21123;DHT22;10719;48.130;11.630;2022-11-20T03:21:46;5.50;99.90
21123;DHT22;10719;48.130;11.630;2022-11-20T03:24:12;5.50;99.90
21123;DHT22;10719;48.130;11.630;2022-11-20T03:26:39;5.50;99.90
21123;DHT22;10719;48.130;11.630;2022-11-20T03:29:04;5.50;99.90
21123;DHT22;10719;48.130;11.630;2022-11-20T03:31:36;5.50;99.90
21123;DHT22;10719;48.130;11.630;2022-11-20T03:34:02;5.50;99.90
21123;DHT22;10719;48.130;11.630;2022-11-20T03:36:29;5.50;99.90
21123;DHT22;10719;48.130;11.630;2022-11-20T03:38:55;5.60;99.90
21123;DHT22;10719;48.130;11.630;2022-11-20T03:41:24;5.60;99.90
21123;DHT22;10719;48.130;11.630;2022-11-20T03:43:55;5.60;99.90
21123;DHT22;10719;48.130;11.630;2022-11-20T03:46:21;5.60;99.90
21123;DHT22;10719;48.130;11.630;2022-11-20T03:48:47;5.50;99.90
21123;DHT22;10719;48.130;11.630;2022-11-20T03:51:21;5.50;99.90
21123;DHT22;10719;48.130;11.630;2022-11-20T03:53:49;5.50;99.90
21123;DHT22;10719;48.130;11.630;2022-11-20T03:56:17;5.50;99.90
21123;DHT22;10719;48.130;11.630;2022-11-20T03:58:43;5.50;99.90
21123;DHT22;10719;48.130;11.630;2022-11-20T04:03:37;5.50;99.90
21123;DHT22;10719;48.130;11.630;2022-11-20T04:06:06;5.50;99.90
21123;DHT22;10719;48.130;11.630;2022-11-20T04:08:32;5.50;99.90
21123;DHT22;10719;48.130;11.630;2022-11-20T04:11:12;5.50;99.90
21123;DHT22;10719;48.130;11.630;2022-11-20T04:13:38;5.50;99.90
21123;DHT22;10719;48.130;11.630;2022-11-20T04:16:05;5.50;99.90
21123;DHT22;10719;48.130;11.630;2022-11-20T04:18:30;5.50;99.90
21123;DHT22;10719;48.130;11.630;2022-11-20T04:20:57;5.50;99.90
21123;DHT22;10719;48.130;11.630;2022-11-20T04:23:23;5.50;99.90
21123;DHT22;10719;48.130;11.630;2022-11-20T04:25:48;5.50;99.90
21123;DHT22;10719;48.130;11.630;2022-11-20T04:28:14;5.50;99.90
21123;DHT22;10719;48.130;11.630;2022-11-20T04:30:40;5.50;99.90
21123;DHT22;10719;48.130;11.630;2022-11-20T04:33:05;5.50;99.90
21123;DHT22;10719;48.130;11.630;2022-11-20T04:35:34;5.40;99.90
21123;DHT22;10719;48.130;11.630;2022-11-20T04:38:00;5.50;99.90
21123;DHT22;10719;48.130;11.630;2022-11-20T04:40:25;5.40;99.90
21123;DHT22;10719;48.130;11.630;2022-11-20T04:42:51;5.40;99.90
21123;DHT22;10719;48.130;11.630;2022-11-20T04:45:16;5.50;99.90
21123;DHT22;10719;48.130;11.630;2022-11-20T04:47:48;5.50;99.90
21123;DHT22;10719;48.130;11.630;2022-11-20T04:50:25;5.50;99.90
21123;DHT22;10719;48.130;11.630;2022-11-20T04:52:50;5.40;99.90
21123;DHT22;10719;48.130;11.630;2022-11-20T04:55:16;5.40;99.90
21123;DHT22;10719;48.130;11.630;2022-11-20T04:57:41;5.40;99.90
21123;DHT22;10719;48.130;11.630;2022-11-20T05:00:07;5.40;99.90
21123;DHT22;10719;48.130;11.630;2022-11-20T05:02:33;5.40;99.90
21123;DHT22;10719;48.130;11.630;2022-11-20T05:04:59;5.40;99.90
21123;DHT22;10719;48.130;11.630;2022-11-20T05:07:24;5.40;99.90
21123;DHT22;10719;48.130;11.630;2022-11-20T05:09:50;5.40;99.90
21123;DHT22;10719;48.130;11.630;2022-11-20T05:12:15;5.30;99.90
21123;DHT22;10719;48.130;11.630;2022-11-20T05:14:41;5.40;99.90
21123;DHT22;10719;48.130;11.630;2022-11-20T05:17:10;5.40;99.90
21123;DHT22;10719;48.130;11.630;2022-11-20T05:19:35;5.40;99.90
21123;DHT22;10719;48.130;11.630;2022-11-20T05:22:01;5.40;99.90
21123;DHT22;10719;48.130;11.630;2022-11-20T05:24:27;5.40;99.90
21123;DHT22;10719;48.130;11.630;2022-11-20T05:26:52;5.40;99.90
21123;DHT22;10719;48.130;11.630;2022-11-20T05:29:18;5.50;99.90
21123;DHT22;10719;48.130;11.630;2022-11-20T05:31:43;5.40;99.90
21123;DHT22;10719;48.130;11.630;2022-11-20T05:34:09;5.40;99.90
21123;DHT22;10719;48.130;11.630;2022-11-20T05:36:34;5.40;99.90
21123;DHT22;10719;48.130;11.630;2022-11-20T05:39:00;5.40;99.90
21123;DHT22;10719;48.130;11.630;2022-11-20T05:41:26;5.40;99.90
21123;DHT22;10719;48.130;11.630;2022-11-20T05:43:51;5.40;99.90
21123;DHT22;10719;48.130;11.630;2022-11-20T05:46:20;5.40;99.90
21123;DHT22;10719;48.130;11.630;2022-11-20T05:48:46;5.40;99.90
21123;DHT22;10719;48.130;11.630;2022-11-20T05:51:17;5.40;99.90
21123;DHT22;10719;48.130;11.630;2022-11-20T05:53:43;5.40;99.90
21123;DHT22;10719;48.130;11.630;2022-11-20T05:56:18;5.40;99.90
21123;DHT22;10719;48.130;11.630;2022-11-20T05:58:44;5.40;99.90
21123;DHT22;10719;48.130;11.630;2022-11-20T06:01:19;5.40;99.90
21123;DHT22;10719;48.130;11.630;2022-11-20T06:03:46;5.40;99.90
21123;DHT22;10719;48.130;11.630;2022-11-20T06:06:14;5.40;99.90
21123;DHT22;10719;48.130;11.630;2022-11-20T06:08:40;5.40;99.90
21123;DHT22;10719;48.130;11.630;2022-11-20T06:11:08;5.30;99.90
21123;DHT22;10719;48.130;11.630;2022-11-20T06:13:34;5.30;99.90
21123;DHT22;10719;48.130;11.630;2022-11-20T06:16:00;5.30;99.90
21123;DHT22;10719;48.130;11.630;2022-11-20T06:18:27;5.30;99.90
21123;DHT22;10719;48.130;11.630;2022-11-20T06:21:09;5.30;99.90
21123;DHT22;10719;48.130;11.630;2022-11-20T06:23:36;5.30;99.90
21123;DHT22;10719;48.130;11.630;2022-11-20T06:26:07;5.20;99.90
21123;DHT22;10719;48.130;11.630;2022-11-20T06:28:34;5.10;99.90
21123;DHT22;10719;48.130;11.630;2022-11-20T06:31:00;5.10;99.90
21123;DHT22;10719;48.130;11.630;2022-11-20T06:33:25;5.10;99.90
21123;DHT22;10719;48.130;11.630;2022-11-20T06:35:51;5.00;99.90
21123;DHT22;10719;48.130;11.630;2022-11-20T06:38:17;5.00;99.90
21123;DHT22;10719;48.130;11.630;2022-11-20T06:40:43;5.00;99.90
21123;DHT22;10719;48.130;11.630;2022-11-20T06:43:09;5.00;99.90
21123;DHT22;10719;48.130;11.630;2022-11-20T06:45:36;5.00;99.90
21123;DHT22;10719;48.130;11.630;2022-11-20T06:48:01;5.00;99.90
21123;DHT22;10719;48.130;11.630;2022-11-20T06:50:27;5.00;99.90
21123;DHT22;10719;48.130;11.630;2022-11-20T06:52:53;5.00;99.90
21123;DHT22;10719;48.130;11.630;2022-11-20T06:55:18;5.00;99.90
21123;DHT22;10719;48.130;11.630;2022-11-20T06:57:44;5.00;99.90
21123;DHT22;10719;48.130;11.630;2022-11-20T07:00:10;5.10;99.90
21123;DHT22;10719;48.130;11.630;2022-11-20T07:02:36;5.10;99.90
21123;DHT22;10719;48.130;11.630;2022-11-20T07:05:01;5.10;99.90
21123;DHT22;10719;48.130;11.630;2022-11-20T07:07:27;5.20;99.90
21123;DHT22;10719;48.130;11.630;2022-11-20T07:09:52;5.20;99.90
21123;DHT22;10719;48.130;11.630;2022-11-20T07:12:18;5.20;99.90
21123;DHT22;10719;48.130;11.630;2022-11-20T07:14:44;5.20;99.90
21123;DHT22;10719;48.130;11.630;2022-11-20T07:17:09;5.30;99.90
21123;DHT22;10719;48.130;11.630;2022-11-20T07:19:35;5.20;99.90
21123;DHT22;10719;48.130;11.630;2022-11-20T07:22:00;5.30;99.90
21123;DHT22;10719;48.130;11.630;2022-11-20T07:24:26;5.40;99.90
21123;DHT22;10719;48.130;11.630;2022-11-20T07:26:51;5.40;99.90
21123;DHT22;10719;48.130;11.630;2022-11-20T07:29:17;5.40;99.90
21123;DHT22;10719;48.130;11.630;2022-11-20T07:31:43;5.30;99.90
21123;DHT22;10719;48.130;11.630;2022-11-20T07:34:08;5.30;99.90
21123;DHT22;10719;48.130;11.630;2022-11-20T07:36:34;5.40;99.90
21123;DHT22;10719;48.130;11.630;2022-11-20T07:39:00;5.40;99.90
21123;DHT22;10719;48.130;11.630;2022-11-20T07:41:26;5.40;99.90
21123;DHT22;10719;48.130;11.630;2022-11-20T07:43:52;5.50;99.90
21123;DHT22;10719;48.130;11.630;2022-11-20T07:46:18;5.50;99.90
21123;DHT22;10719;48.130;11.630;2022-11-20T07:48:44;5.50;99.90
21123;DHT22;10719;48.130;11.630;2022-11-20T07:51:09;5.50;99.90
21123;DHT22;10719;48.130;11.630;2022-11-20T07:53:35;5.50;99.90
21123;DHT22;10719;48.130;11.630;2022-11-20T07:56:01;5.60;99.90
21123;DHT22;10719;48.130;11.630;2022-11-20T07:58:29;5.60;99.90
21123;DHT22;10719;48.130;11.630;2022-11-20T08:00:55;5.60;99.90
21123;DHT22;10719;48.130;11.630;2022-11-20T08:03:21;5.70;99.90
21123;DHT22;10719;48.130;11.630;2022-11-20T08:05:47;5.70;99.90
21123;DHT22;10719;48.130;11.630;2022-11-20T08:08:12;5.70;99.90
21123;DHT22;10719;48.130;11.630;2022-11-20T08:10:38;5.70;99.90
21123;DHT22;10719;48.130;11.630;2022-11-20T08:13:03;5.70;99.90
21123;DHT22;10719;48.130;11.630;2022-11-20T08:15:49;5.80;99.90
21123;DHT22;10719;48.130;11.630;2022-11-20T08:18:16;5.80;99.90
21123;DHT22;10719;48.130;11.630;2022-11-20T08:20:43;5.80;99.90
21123;DHT22;10719;48.130;11.630;2022-11-20T08:23:08;5.80;99.90
21123;DHT22;10719;48.130;11.630;2022-11-20T08:25:35;5.80;99.90
21123;DHT22;10719;48.130;11.630;2022-11-20T08:28:03;5.80;99.90
21123;DHT22;10719;48.130;11.630;2022-11-20T08:30:30;5.80;99.90
21123;DHT22;10719;48.130;11.630;2022-11-20T08:33:01;5.80;99.90
21123;DHT22;10719;48.130;11.630;2022-11-20T08:35:27;5.90;99.90
21123;DHT22;10719;48.130;11.630;2022-11-20T08:37:52;5.90;99.90
21123;DHT22;10719;48.130;11.630;2022-11-20T08:40:18;5.90;99.90
21123;DHT22;10719;48.130;11.630;2022-11-20T08:42:48;5.90;99.90
21123;DHT22;10719;48.130;11.630;2022-11-20T08:45:14;5.90;99.90
21123;DHT22;10719;48.130;11.630;2022-11-20T08:47:39;6.00;99.90
21123;DHT22;10719;48.130;11.630;2022-11-20T08:50:05;6.10;99.90
21123;DHT22;10719;48.130;11.630;2022-11-20T08:52:31;6.10;99.90
21123;DHT22;10719;48.130;11.630;2022-11-20T08:54:57;6.20;99.90
21123;DHT22;10719;48.130;11.630;2022-11-20T08:57:22;6.20;99.90
21123;DHT22;10719;48.130;11.630;2022-11-20T08:59:48;6.30;99.90
21123;DHT22;10719;48.130;11.630;2022-11-20T09:02:14;6.30;99.90
21123;DHT22;10719;48.130;11.630;2022-11-20T09:04:40;6.30;99.90
21123;DHT22;10719;48.130;11.630;2022-11-20T09:07:06;6.30;99.90
21123;DHT22;10719;48.130;11.630;2022-11-20T09:09:31;6.40;99.90
21123;DHT22;10719;48.130;11.630;2022-11-20T09:11:58;6.40;99.90
21123;DHT22;10719;48.130;11.630;2022-11-20T09:14:23;6.40;99.90
21123;DHT22;10719;48.130;11.630;2022-11-20T09:16:54;6.50;99.90
21123;DHT22;10719;48.130;11.630;2022-11-20T09:19:20;6.40;99.90
21123;DHT22;10719;48.130;11.630;2022-11-20T09:21:46;6.50;99.90
21123;DHT22;10719;48.130;11.630;2022-11-20T09:24:11;6.50;99.90
21123;DHT22;10719;48.130;11.630;2022-11-20T09:26:37;6.60;99.90
21123;DHT22;10719;48.130;11.630;2022-11-20T09:29:02;6.60;99.90
21123;DHT22;10719;48.130;11.630;2022-11-20T09:31:28;6.70;99.90
21123;DHT22;10719;48.130;11.630;2022-11-20T09:33:53;6.70;99.90
21123;DHT22;10719;48.130;11.630;2022-11-20T09:36:19;6.80;99.90
21123;DHT22;10719;48.130;11.630;2022-11-20T09:38:46;6.80;99.90
21123;DHT22;10719;48.130;11.630;2022-11-20T09:52:37;7.20;99.90
21123;DHT22;10719;48.130;11.630;2022-11-20T09:55:10;7.30;99.90
21123;DHT22;10719;48.130;11.630;2022-11-20T09:57:40;7.30;99.90
21123;DHT22;10719;48.130;11.630;2022-11-20T10:00:10;7.10;99.90
21123;DHT22;10719;48.130;11.630;2022-11-20T10:10:47;7.30;99.90
21123;DHT22;10719;48.130;11.630;2022-11-20T10:13:51;7.50;99.90
21123;DHT22;10719;48.130;11.630;2022-11-20T10:30:11;8.60;99.90
21123;DHT22;10719;48.130;11.630;2022-11-20T10:32:47;8.50;99.90
21123;DHT22;10719;48.130;11.630;2022-11-20T10:35:18;8.40;99.90
21123;DHT22;10719;48.130;11.630;2022-11-20T10:37:49;8.30;99.90
21123;DHT22;10719;48.130;11.630;2022-11-20T10:40:35;8.30;99.90
21123;DHT22;10719;48.130;11.630;2022-11-20T10:43:16;8.30;99.90
21123;DHT22;10719;48.130;11.630;2022-11-20T10:48:23;8.00;99.90
21123;DHT22;10719;48.130;11.630;2022-11-20T10:51:01;8.00;99.90
21123;DHT22;10719;48.130;11.630;2022-11-20T10:56:34;8.20;99.90
21123;DHT22;10719;48.130;11.630;2022-11-20T11:03:02;8.30;99.90
21123;DHT22;10719;48.130;11.630;2022-11-20T11:05:30;8.10;99.90
21123;DHT22;10719;48.130;11.630;2022-11-20T11:07:57;8.00;99.90
21123;DHT22;10719;48.130;11.630;2022-11-20T11:13:27;8.10;99.90
21123;DHT22;10719;48.130;11.630;2022-11-20T11:15:53;8.10;99.90
21123;DHT22;10719;48.130;11.630;2022-11-20T11:18:31;8.10;99.90
21123;DHT22;10719;48.130;11.630;2022-11-20T11:20:59;7.90;99.90
21123;DHT22;10719;48.130;11.630;2022-11-20T11:23:33;7.90;99.90
21123;DHT22;10719;48.130;11.630;2022-11-20T11:26:01;7.90;99.90
21123;DHT22;10719;48.130;11.630;2022-11-20T11:28:27;7.90;99.90
21123;DHT22;10719;48.130;11.630;2022-11-20T11:30:54;8.00;99.90
21123;DHT22;10719;48.130;11.630;2022-11-20T11:33:22;8.00;99.90
21123;DHT22;10719;48.130;11.630;2022-11-20T11:36:03;7.90;99.90
21123;DHT22;10719;48.130;11.630;2022-11-20T11:38:48;7.90;99.90
21123;DHT22;10719;48.130;11.630;2022-11-20T11:41:20;8.00;99.90
21123;DHT22;10719;48.130;11.630;2022-11-20T11:43:55;8.10;99.90
21123;DHT22;10719;48.130;11.630;2022-11-20T11:46:49;8.20;99.90
21123;DHT22;10719;48.130;11.630;2022-11-20T11:49:19;8.20;99.90
21123;DHT22;10719;48.130;11.630;2022-11-20T11:54:44;8.30;99.90
21123;DHT22;10719;48.130;11.630;2022-11-20T12:00:10;8.30;99.90
21123;DHT22;10719;48.130;11.630;2022-11-20T12:07:53;8.20;99.90
21123;DHT22;10719;48.130;11.630;2022-11-20T12:10:22;8.20;99.90
21123;DHT22;10719;48.130;11.630;2022-11-20T12:12:53;8.20;99.90
21123;DHT22;10719;48.130;11.630;2022-11-20T12:15:33;8.00;99.90
21123;DHT22;10719;48.130;11.630;2022-11-20T12:17:59;7.80;99.90
21123;DHT22;10719;48.130;11.630;2022-11-20T12:20:31;7.70;99.90
21123;DHT22;10719;48.130;11.630;2022-11-20T12:23:22;7.50;99.90
21123;DHT22;10719;48.130;11.630;2022-11-20T12:25:54;7.00;99.90
21123;DHT22;10719;48.130;11.630;2022-11-20T12:28:42;6.90;99.90
21123;DHT22;10719;48.130;11.630;2022-11-20T12:39:36;6.80;99.90
21123;DHT22;10719;48.130;11.630;2022-11-20T12:49:02;6.70;99.90
21123;DHT22;10719;48.130;11.630;2022-11-20T12:54:01;6.70;99.90
21123;DHT22;10719;48.130;11.630;2022-11-20T12:56:46;6.70;99.90
21123;DHT22;10719;48.130;11.630;2022-11-20T12:59:45;6.70;99.90
21123;DHT22;10719;48.130;11.630;2022-11-20T13:02:29;6.70;99.90
21123;DHT22;10719;48.130;11.630;2022-11-20T13:08:02;6.70;99.90
21123;DHT22;10719;48.130;11.630;2022-11-20T13:10:45;6.60;99.90
21123;DHT22;10719;48.130;11.630;2022-11-20T13:13:25;6.60;99.90
21123;DHT22;10719;48.130;11.630;2022-11-20T13:16:18;6.50;99.90
21123;DHT22;10719;48.130;11.630;2022-11-20T13:18:45;6.60;99.90
21123;DHT22;10719;48.130;11.630;2022-11-20T13:21:15;6.60;99.90
21123;DHT22;10719;48.130;11.630;2022-11-20T13:23:42;6.60;99.90
21123;DHT22;10719;48.130;11.630;2022-11-20T13:26:23;6.60;99.90
21123;DHT22;10719;48.130;11.630;2022-11-20T13:29:21;6.60;99.90
21123;DHT22;10719;48.130;11.630;2022-11-20T13:31:48;6.50;99.90
21123;DHT22;10719;48.130;11.630;2022-11-20T13:34:26;6.50;99.90
21123;DHT22;10719;48.130;11.630;2022-11-20T13:36:56;6.50;99.90
21123;DHT22;10719;48.130;11.630;2022-11-20T13:39:38;6.40;99.90
21123;DHT22;10719;48.130;11.630;2022-11-20T13:44:42;6.30;99.90
21123;DHT22;10719;48.130;11.630;2022-11-20T13:47:25;6.30;99.90
21123;DHT22;10719;48.130;11.630;2022-11-20T13:49:52;6.30;99.90
21123;DHT22;10719;48.130;11.630;2022-11-20T13:57:48;6.40;99.90
21123;DHT22;10719;48.130;11.630;2022-11-20T14:00:24;6.40;99.90
21123;DHT22;10719;48.130;11.630;2022-11-20T14:03:20;6.40;99.90
21123;DHT22;10719;48.130;11.630;2022-11-20T14:05:53;6.50;99.90
21123;DHT22;10719;48.130;11.630;2022-11-20T14:08:36;6.50;99.90
21123;DHT22;10719;48.130;11.630;2022-11-20T14:14:00;6.50;99.90
21123;DHT22;10719;48.130;11.630;2022-11-20T14:16:29;6.50;99.90
21123;DHT22;10719;48.130;11.630;2022-11-20T14:18:56;6.50;99.90
21123;DHT22;10719;48.130;11.630;2022-11-20T14:21:26;6.50;99.90
21123;DHT22;10719;48.130;11.630;2022-11-20T14:24:05;6.50;99.90
21123;DHT22;10719;48.130;11.630;2022-11-20T14:26:32;6.50;99.90
21123;DHT22;10719;48.130;11.630;2022-11-20T14:28:58;6.60;99.90
21123;DHT22;10719;48.130;11.630;2022-11-20T14:31:26;6.70;99.90
21123;DHT22;10719;48.130;11.630;2022-11-20T14:33:53;6.70;99.90
21123;DHT22;10719;48.130;11.630;2022-11-20T14:36:22;6.70;99.90
21123;DHT22;10719;48.130;11.630;2022-11-20T14:38:48;6.70;99.90
21123;DHT22;10719;48.130;11.630;2022-11-20T14:41:18;6.60;99.90
21123;DHT22;10719;48.130;11.630;2022-11-20T14:43:59;6.60;99.90
21123;DHT22;10719;48.130;11.630;2022-11-20T14:46:25;6.60;99.90
21123;DHT22;10719;48.130;11.630;2022-11-20T14:48:54;6.60;99.90
21123;DHT22;10719;48.130;11.630;2022-11-20T14:53:53;6.50;99.90
21123;DHT22;10719;48.130;11.630;2022-11-20T14:56:23;6.50;99.90
21123;DHT22;10719;48.130;11.630;2022-11-20T14:58:56;6.50;99.90
21123;DHT22;10719;48.130;11.630;2022-11-20T15:01:30;6.50;99.90
21123;DHT22;10719;48.130;11.630;2022-11-20T15:04:09;6.50;99.90
21123;DHT22;10719;48.130;11.630;2022-11-20T15:06:36;6.50;99.90
21123;DHT22;10719;48.130;11.630;2022-11-20T15:09:04;6.50;99.90
21123;DHT22;10719;48.130;11.630;2022-11-20T15:11:34;6.50;99.90
21123;DHT22;10719;48.130;11.630;2022-11-20T15:14:05;6.50;99.90
21123;DHT22;10719;48.130;11.630;2022-11-20T15:16:32;6.50;99.90
21123;DHT22;10719;48.130;11.630;2022-11-20T15:18:58;6.40;99.90
21123;DHT22;10719;48.130;11.630;2022-11-20T15:21:25;6.40;99.90
21123;DHT22;10719;48.130;11.630;2022-11-20T15:23:50;6.40;99.90
21123;DHT22;10719;48.130;11.630;2022-11-20T15:26:27;6.30;99.90
21123;DHT22;10719;48.130;11.630;2022-11-20T15:28:53;6.30;99.90
21123;DHT22;10719;48.130;11.630;2022-11-20T15:31:22;6.40;99.90
21123;DHT22;10719;48.130;11.630;2022-11-20T15:33:48;6.40;99.90
21123;DHT22;10719;48.130;11.630;2022-11-20T15:36:14;6.40;99.90
21123;DHT22;10719;48.130;11.630;2022-11-20T15:38:40;6.40;99.90
21123;DHT22;10719;48.130;11.630;2022-11-20T15:41:06;6.30;99.90
21123;DHT22;10719;48.130;11.630;2022-11-20T15:43:32;6.30;99.90
21123;DHT22;10719;48.130;11.630;2022-11-20T15:46:28;6.30;99.90
21123;DHT22;10719;48.130;11.630;2022-11-20T15:48:55;6.20;99.90
21123;DHT22;10719;48.130;11.630;2022-11-20T15:51:24;6.20;99.90
21123;DHT22;10719;48.130;11.630;2022-11-20T15:53:51;6.10;99.90
21123;DHT22;10719;48.130;11.630;2022-11-20T15:56:17;6.00;99.90
21123;DHT22;10719;48.130;11.630;2022-11-20T15:58:42;5.90;99.90
21123;DHT22;10719;48.130;11.630;2022-11-20T16:01:13;5.90;99.90
21123;DHT22;10719;48.130;11.630;2022-11-20T16:03:39;5.80;99.90
21123;DHT22;10719;48.130;11.630;2022-11-20T16:06:05;5.80;99.90
21123;DHT22;10719;48.130;11.630;2022-11-20T16:08:31;5.80;99.90
21123;DHT22;10719;48.130;11.630;2022-11-20T16:10:56;5.70;99.90
21123;DHT22;10719;48.130;11.630;2022-11-20T16:13:25;5.70;99.90
21123;DHT22;10719;48.130;11.630;2022-11-20T16:16:31;5.60;99.90
21123;DHT22;10719;48.130;11.630;2022-11-20T16:18:57;5.50;99.90
21123;DHT22;10719;48.130;11.630;2022-11-20T16:21:23;5.50;99.90
21123;DHT22;10719;48.130;11.630;2022-11-20T16:24:00;5.50;99.90
21123;DHT22;10719;48.130;11.630;2022-11-20T16:26:26;5.50;99.90
21123;DHT22;10719;48.130;11.630;2022-11-20T16:28:52;5.50;99.90
21123;DHT22;10719;48.130;11.630;2022-11-20T16:31:18;5.40;99.90
21123;DHT22;10719;48.130;11.630;2022-11-20T16:33:51;5.40;99.90
21123;DHT22;10719;48.130;11.630;2022-11-20T16:36:18;5.30;99.90
21123;DHT22;10719;48.130;11.630;2022-11-20T16:38:44;5.30;99.90
21123;DHT22;10719;48.130;11.630;2022-11-20T16:41:09;5.20;99.90
21123;DHT22;10719;48.130;11.630;2022-11-20T16:43:50;5.20;99.90
21123;DHT22;10719;48.130;11.630;2022-11-20T16:46:19;5.20;99.90
21123;DHT22;10719;48.130;11.630;2022-11-20T16:48:45;5.20;99.90
21123;DHT22;10719;48.130;11.630;2022-11-20T16:51:17;5.10;99.90
21123;DHT22;10719;48.130;11.630;2022-11-20T16:53:42;5.10;99.90
21123;DHT22;10719;48.130;11.630;2022-11-20T16:56:13;5.00;99.90
21123;DHT22;10719;48.130;11.630;2022-11-20T16:58:40;5.00;99.90
21123;DHT22;10719;48.130;11.630;2022-11-20T17:01:11;5.00;99.90
21123;DHT22;10719;48.130;11.630;2022-11-20T17:03:39;4.90;99.90
21123;DHT22;10719;48.130;11.630;2022-11-20T17:06:19;4.90;99.90
21123;DHT22;10719;48.130;11.630;2022-11-20T17:08:46;4.90;99.90
21123;DHT22;10719;48.130;11.630;2022-11-20T17:11:14;4.90;99.90
21123;DHT22;10719;48.130;11.630;2022-11-20T17:13:40;4.90;99.90
21123;DHT22;10719;48.130;11.630;2022-11-20T17:16:09;5.00;99.90
21123;DHT22;10719;48.130;11.630;2022-11-20T17:18:34;4.90;99.90
21123;DHT22;10719;48.130;11.630;2022-11-20T17:21:01;4.90;99.90